createdAt,value
2023-03-28T00:01:02.070Z,0.30
2023-03-28T00:03:29.917Z,0.60
2023-03-28T00:06:01.066Z,0.40
2023-03-28T00:08:29.480Z,0.50
2023-03-28T00:11:23.443Z,0.60
2023-03-28T00:13:57.787Z,0.75
2023-03-28T00:16:26.172Z,0.30
2023-03-28T00:18:53.970Z,0.93
2023-03-28T00:21:25.981Z,0.75
2023-03-28T00:23:55.791Z,1.23
2023-03-28T00:26:24.982Z,0.38
2023-03-28T00:28:52.812Z,0.90
2023-03-28T00:31:20.815Z,0.77
2023-03-28T00:33:49.191Z,0.38
2023-03-28T00:36:26.599Z,0.20
2023-03-28T00:38:54.751Z,0.40
2023-03-28T00:41:23.378Z,0.95
2023-03-28T00:43:54.729Z,0.52
2023-03-28T00:46:29.957Z,0.52
2023-03-28T00:48:59.885Z,0.73
2023-03-28T00:51:31.004Z,0.65
2023-03-28T00:54:00.548Z,0.85
2023-03-28T00:56:31.827Z,0.47
2023-03-28T00:58:59.861Z,0.55
2023-03-28T01:01:28.330Z,0.50
2023-03-28T01:04:02.492Z,1.02
2023-03-28T01:06:35.418Z,1.00
2023-03-28T01:09:07.035Z,0.85
2023-03-28T01:11:37.083Z,0.63
2023-03-28T01:16:32.975Z,0.80
2023-03-28T01:19:04.498Z,0.98
2023-03-28T01:21:50.241Z,0.63
2023-03-28T01:24:24.203Z,0.73
2023-03-28T01:27:07.835Z,0.60
2023-03-28T01:30:01.155Z,1.45
2023-03-28T01:32:42.279Z,1.00
2023-03-28T01:35:37.778Z,1.25
2023-03-28T01:38:21.482Z,0.90
2023-03-28T01:41:26.045Z,0.40
2023-03-28T01:44:02.728Z,1.08
2023-03-28T01:46:39.132Z,0.60
2023-03-28T01:49:12.894Z,1.25
2023-03-28T01:51:43.677Z,0.60
2023-03-28T01:54:26.780Z,0.65
2023-03-28T01:56:57.640Z,0.40
2023-03-28T01:59:28.967Z,0.50
2023-03-28T02:02:13.284Z,0.50
2023-03-28T02:04:42.980Z,0.80
2023-03-28T02:07:13.284Z,1.00
2023-03-28T02:09:43.498Z,0.80
2023-03-28T02:12:13.541Z,1.08
2023-03-28T02:14:43.438Z,0.95
2023-03-28T02:17:15.883Z,0.65
2023-03-28T02:19:49.106Z,0.50
2023-03-28T02:22:19.771Z,0.95
2023-03-28T02:24:51.825Z,0.45
2023-03-28T02:27:21.479Z,0.77
2023-03-28T02:29:49.795Z,0.47
2023-03-28T02:32:22.071Z,1.48
2023-03-28T02:34:51.017Z,0.88
2023-03-28T02:37:29.268Z,1.08
2023-03-28T02:40:21.955Z,0.52
2023-03-28T02:42:55.862Z,0.75
2023-03-28T02:45:35.822Z,0.75
2023-03-28T02:48:13.154Z,0.40
2023-03-28T02:50:55.364Z,1.00
2023-03-28T02:53:33.530Z,0.40
2023-03-28T02:56:11.369Z,0.95
2023-03-28T02:58:46.669Z,0.75
2023-03-28T03:01:18.180Z,0.40
2023-03-28T03:03:47.162Z,0.70
2023-03-28T03:06:14.991Z,0.50
2023-03-28T03:08:42.770Z,0.77
2023-03-28T03:11:10.597Z,0.50
2023-03-28T03:13:38.287Z,0.50
2023-03-28T03:16:06.323Z,0.95
2023-03-28T03:18:35.107Z,0.35
2023-03-28T03:21:05.455Z,0.60
2023-03-28T03:23:33.245Z,1.23
2023-03-28T03:26:01.167Z,0.80
2023-03-28T03:28:29.082Z,0.88
2023-03-28T03:30:56.918Z,0.70
2023-03-28T03:33:25.832Z,1.75
2023-03-28T03:35:53.625Z,1.38
2023-03-28T03:38:21.493Z,1.63
2023-03-28T03:40:49.342Z,1.35
2023-03-28T03:43:17.208Z,1.20
2023-03-28T03:45:46.381Z,1.25
2023-03-28T03:48:14.248Z,0.85
2023-03-28T03:50:44.318Z,1.30
2023-03-28T03:53:12.511Z,1.10
2023-03-28T03:55:40.452Z,1.08
2023-03-28T03:58:08.220Z,0.70
2023-03-28T04:00:37.697Z,0.93
2023-03-28T04:03:05.464Z,0.60
2023-03-28T04:05:33.562Z,0.70
2023-03-28T04:08:01.820Z,0.60
2023-03-28T04:10:29.642Z,0.90
2023-03-28T04:12:57.300Z,0.95
2023-03-28T04:15:25.121Z,0.32
2023-03-28T04:17:56.953Z,0.50
2023-03-28T04:20:26.843Z,1.10
2023-03-28T04:22:54.854Z,0.30
2023-03-28T04:25:24.915Z,0.43
2023-03-28T04:27:54.679Z,1.05
2023-03-28T04:30:22.593Z,1.15
2023-03-28T04:32:54.549Z,0.73
2023-03-28T04:35:23.793Z,3.05
2023-03-28T04:37:51.583Z,0.73
2023-03-28T04:40:19.290Z,1.77
2023-03-28T04:42:47.090Z,1.15
2023-03-28T04:45:17.212Z,2.15
2023-03-28T04:47:46.247Z,2.47
2023-03-28T04:50:14.138Z,1.35
2023-03-28T04:52:41.937Z,1.90
2023-03-28T04:55:10.451Z,0.70
2023-03-28T04:57:38.402Z,2.22
2023-03-28T05:00:09.993Z,2.10
2023-03-28T05:02:38.442Z,1.75
2023-03-28T05:05:07.787Z,3.13
2023-03-28T05:07:35.778Z,2.35
2023-03-28T05:10:03.688Z,2.50
2023-03-28T05:12:31.545Z,4.38
2023-03-28T05:14:59.403Z,1.75
2023-03-28T05:17:27.092Z,2.90
2023-03-28T05:19:54.665Z,3.10
2023-03-28T05:22:22.778Z,1.20
2023-03-28T05:24:50.563Z,2.55
2023-03-28T05:27:18.344Z,2.55
2023-03-28T05:29:46.263Z,2.78
2023-03-28T05:32:15.097Z,7.82
2023-03-28T05:34:42.932Z,2.28
2023-03-28T05:37:10.675Z,3.10
2023-03-28T05:39:38.985Z,2.22
2023-03-28T05:42:09.291Z,4.22
2023-03-28T05:44:37.097Z,2.25
2023-03-28T05:47:04.840Z,4.15
2023-03-28T05:49:32.649Z,2.47
2023-03-28T05:52:00.540Z,4.55
2023-03-28T05:54:28.426Z,1.48
2023-03-28T05:56:56.397Z,3.13
2023-03-28T05:59:25.022Z,10.38
2023-03-28T06:01:56.005Z,4.65
2023-03-28T06:04:25.846Z,4.43
2023-03-28T06:06:53.671Z,3.67
2023-03-28T06:09:21.500Z,4.75
2023-03-28T06:11:49.778Z,6.68
2023-03-28T06:14:18.842Z,4.07
2023-03-28T06:19:18.820Z,5.78
2023-03-28T06:21:46.852Z,3.88
2023-03-28T06:24:15.203Z,4.55
2023-03-28T06:26:43.112Z,4.50
2023-03-28T06:29:12.173Z,4.97
2023-03-28T06:31:40.897Z,7.22
2023-03-28T06:34:08.876Z,8.82
2023-03-28T06:36:36.726Z,3.97
2023-03-28T06:39:04.733Z,7.53
2023-03-28T06:41:32.587Z,4.38
2023-03-28T06:44:00.392Z,4.50
2023-03-28T06:46:28.155Z,4.45
2023-03-28T06:48:55.998Z,6.70
2023-03-28T06:51:23.812Z,7.63
2023-03-28T06:53:51.967Z,4.18
2023-03-28T06:56:20.312Z,6.25
2023-03-28T06:58:49.812Z,4.90
2023-03-28T07:01:17.670Z,4.72
2023-03-28T07:03:45.848Z,5.35
2023-03-28T07:06:13.772Z,5.40
2023-03-28T07:08:41.428Z,3.60
2023-03-28T07:11:09.154Z,3.97
2023-03-28T07:13:39.093Z,2.95
2023-03-28T07:16:12.227Z,6.45
2023-03-28T07:18:41.354Z,5.10
2023-03-28T07:21:11.045Z,8.15
2023-03-28T07:23:39.545Z,6.28
2023-03-28T07:26:07.609Z,6.20
2023-03-28T07:28:40.427Z,4.00
2023-03-28T07:31:13.365Z,4.13
2023-03-28T07:33:42.070Z,8.63
2023-03-28T07:36:13.248Z,4.38
2023-03-28T07:38:41.336Z,7.30
2023-03-28T07:41:09.284Z,5.35
2023-03-28T07:43:38.838Z,8.48
2023-03-28T07:46:09.577Z,4.82
2023-03-28T07:48:38.223Z,11.15
2023-03-28T07:51:09.432Z,7.03
2023-03-28T07:53:40.491Z,9.65
2023-03-28T07:56:12.287Z,11.70
2023-03-28T07:58:41.106Z,9.43
2023-03-28T08:01:09.517Z,5.25
2023-03-28T08:03:37.846Z,6.80
2023-03-28T08:06:24.269Z,6.47
2023-03-28T08:09:01.879Z,7.82
2023-03-28T08:11:32.862Z,6.45
2023-03-28T08:14:00.774Z,8.75
2023-03-28T08:16:28.695Z,10.00
2023-03-28T08:19:09.288Z,6.07
2023-03-28T08:21:39.433Z,3.33
2023-03-28T08:24:08.123Z,3.58
2023-03-28T08:26:36.855Z,4.40
2023-03-28T08:29:06.868Z,6.35
2023-03-28T08:31:34.698Z,4.65
2023-03-28T08:34:03.138Z,6.40
2023-03-28T08:36:33.278Z,5.47
2023-03-28T08:39:01.153Z,6.32
2023-03-28T08:41:43.896Z,4.07
2023-03-28T08:44:11.657Z,4.63
2023-03-28T08:46:43.076Z,5.82
2023-03-28T08:49:13.546Z,6.15
2023-03-28T08:51:42.021Z,4.07
2023-03-28T08:54:21.075Z,5.72
2023-03-28T08:56:57.323Z,2.78
2023-03-28T09:02:18.889Z,5.15
2023-03-28T09:04:46.805Z,3.08
2023-03-28T09:07:42.338Z,4.57
2023-03-28T09:10:17.009Z,3.90
2023-03-28T09:12:45.028Z,5.70
2023-03-28T09:15:22.066Z,5.95
2023-03-28T09:18:08.513Z,4.15
2023-03-28T09:20:41.714Z,5.53
2023-03-28T09:23:16.929Z,4.05
2023-03-28T09:25:51.657Z,5.10
2023-03-28T09:28:51.593Z,3.83
2023-03-28T09:31:21.127Z,5.90
2023-03-28T09:33:50.786Z,4.65
2023-03-28T09:36:29.437Z,3.58
2023-03-28T09:39:06.600Z,5.97
2023-03-28T09:41:37.474Z,5.53
2023-03-28T09:44:08.178Z,5.43
2023-03-28T09:46:47.103Z,4.60
2023-03-28T09:49:17.752Z,6.22
2023-03-28T09:51:46.813Z,5.03
2023-03-28T09:54:14.671Z,7.03
2023-03-28T09:56:43.803Z,4.60
2023-03-28T09:59:29.469Z,6.32
2023-03-28T10:01:57.791Z,8.30
2023-03-28T10:04:28.501Z,9.63
2023-03-28T10:07:17.146Z,8.50
2023-03-28T10:12:35.961Z,8.15
2023-03-28T10:15:03.700Z,6.60
2023-03-28T10:17:37.254Z,6.20
2023-03-28T10:20:25.117Z,9.57
2023-03-28T10:22:54.901Z,5.85
2023-03-28T10:25:37.226Z,5.30
2023-03-28T10:28:06.283Z,5.22
2023-03-28T10:30:34.896Z,5.93
2023-03-28T10:33:11.664Z,4.20
2023-03-28T10:35:41.815Z,6.22
2023-03-28T10:38:19.896Z,6.15
2023-03-28T10:41:01.295Z,5.80
2023-03-28T10:43:37.654Z,5.47
2023-03-28T10:46:08.290Z,10.13
2023-03-28T10:48:36.577Z,7.38
2023-03-28T10:51:08.806Z,8.70
2023-03-28T10:54:18.039Z,8.38
2023-03-28T10:56:52.958Z,10.20
2023-03-28T10:59:20.719Z,9.20
2023-03-28T11:02:16.068Z,5.80
2023-03-28T11:04:50.326Z,6.57
2023-03-28T11:07:28.851Z,8.18
2023-03-28T11:10:07.540Z,12.00
2023-03-28T11:12:47.520Z,7.35
2023-03-28T11:15:25.660Z,7.47
2023-03-28T11:17:59.786Z,10.55
2023-03-28T11:20:29.664Z,9.70
2023-03-28T11:23:23.246Z,6.22
2023-03-28T11:25:57.600Z,7.05
2023-03-28T11:28:37.195Z,8.48
2023-03-28T11:31:05.115Z,7.40
2023-03-28T11:33:39.736Z,12.93
2023-03-28T11:36:30.794Z,9.15
2023-03-28T11:39:02.350Z,9.40
2023-03-28T11:41:34.919Z,6.70
2023-03-28T11:44:02.280Z,8.32
2023-03-28T11:46:38.225Z,8.85
2023-03-28T11:49:14.181Z,6.28
2023-03-28T11:51:43.151Z,6.22
2023-03-28T11:54:10.819Z,5.43
2023-03-28T11:56:43.361Z,5.28
2023-03-28T11:59:21.115Z,8.10
2023-03-28T12:01:55.319Z,7.95
2023-03-28T12:04:34.078Z,9.05
2023-03-28T12:07:23.032Z,9.85
2023-03-28T12:09:50.499Z,9.20
2023-03-28T12:12:22.412Z,11.30
2023-03-28T12:14:58.879Z,12.80
2023-03-28T12:17:49.680Z,9.90
2023-03-28T12:20:36.578Z,10.63
2023-03-28T12:23:33.710Z,8.57
2023-03-28T12:26:18.261Z,10.52
2023-03-28T12:28:58.326Z,9.32
2023-03-28T12:31:26.680Z,6.85
2023-03-28T12:34:22.058Z,5.53
2023-03-28T12:36:49.486Z,6.97
2023-03-28T12:39:24.800Z,7.35
2023-03-28T12:41:53.478Z,8.82
2023-03-28T12:44:24.961Z,7.43
2023-03-28T12:47:13.804Z,6.82
2023-03-28T12:49:56.651Z,8.18
2023-03-28T12:52:31.212Z,8.45
2023-03-28T12:55:01.053Z,6.00
2023-03-28T12:57:40.963Z,9.10
2023-03-28T13:00:40.694Z,13.43
2023-03-28T13:03:34.442Z,10.77
2023-03-28T13:06:12.209Z,8.10
2023-03-28T13:08:58.840Z,6.05
2023-03-28T13:11:45.082Z,6.03
2023-03-28T13:14:30.972Z,9.30
2023-03-28T13:16:59.300Z,7.78
2023-03-28T13:19:47.395Z,5.85
2023-03-28T13:22:28.537Z,11.00
2023-03-28T13:25:28.918Z,8.90
2023-03-28T13:27:58.091Z,6.65
2023-03-28T13:30:27.771Z,4.63
2023-03-28T13:32:58.391Z,7.78
2023-03-28T13:35:44.229Z,4.72
2023-03-28T13:38:28.431Z,6.15
2023-03-28T13:41:00.743Z,8.80
2023-03-28T13:43:34.627Z,8.63
2023-03-28T13:46:08.193Z,6.03
2023-03-28T13:48:59.222Z,5.63
2023-03-28T13:51:31.830Z,4.68
2023-03-28T13:53:59.454Z,4.85
2023-03-28T13:56:30.209Z,9.57
2023-03-28T13:58:59.090Z,5.75
2023-03-28T14:01:48.363Z,5.88
2023-03-28T14:04:33.822Z,3.08
2023-03-28T14:07:01.952Z,5.68
2023-03-28T14:09:28.965Z,4.40
2023-03-28T14:12:23.462Z,3.80
2023-03-28T14:14:53.983Z,2.17
2023-03-28T14:17:25.215Z,4.40
2023-03-28T14:19:57.287Z,6.32
2023-03-28T14:22:31.881Z,3.80
2023-03-28T14:25:05.140Z,2.85
2023-03-28T14:27:43.275Z,2.92
2023-03-28T14:30:31.161Z,5.20
2023-03-28T14:33:14.364Z,4.88
2023-03-28T14:35:48.035Z,6.40
2023-03-28T14:38:28.349Z,4.78
2023-03-28T14:41:04.055Z,2.97
2023-03-28T14:43:31.862Z,4.72
2023-03-28T14:46:04.344Z,2.78
2023-03-28T14:48:32.370Z,2.55
2023-03-28T14:51:03.926Z,1.42
2023-03-28T14:53:37.178Z,5.30
2023-03-28T14:56:11.510Z,3.88
2023-03-28T14:58:42.311Z,3.28
2023-03-28T15:01:15.906Z,2.63
2023-03-28T15:03:46.502Z,2.53
2023-03-28T15:06:17.956Z,1.65
2023-03-28T15:08:45.885Z,3.25
2023-03-28T15:11:19.595Z,1.23
2023-03-28T15:14:04.165Z,3.47
2023-03-28T15:16:35.887Z,3.28
2023-03-28T15:19:13.165Z,1.60
2023-03-28T15:21:42.984Z,2.13
2023-03-28T15:24:17.106Z,1.40
2023-03-28T15:26:51.263Z,2.15
2023-03-28T15:29:20.295Z,2.35
2023-03-28T15:31:48.008Z,1.80
2023-03-28T15:34:24.286Z,2.80
2023-03-28T15:37:02.038Z,1.08
2023-03-28T15:39:32.135Z,3.90
2023-03-28T15:42:22.781Z,1.00
2023-03-28T15:44:59.545Z,2.15
2023-03-28T15:47:30.604Z,2.42
2023-03-28T15:50:13.015Z,2.15
2023-03-28T15:55:21.410Z,3.33
2023-03-28T15:57:48.888Z,1.50
2023-03-28T16:00:36.469Z,4.95
2023-03-28T16:03:21.962Z,1.17
2023-03-28T16:05:51.048Z,2.42
2023-03-28T16:08:28.520Z,2.40
2023-03-28T16:10:55.595Z,2.80
2023-03-28T16:13:22.493Z,1.73
2023-03-28T16:15:51.190Z,1.33
2023-03-28T16:18:20.768Z,2.58
2023-03-28T16:20:48.077Z,1.58
2023-03-28T16:23:15.793Z,2.53
2023-03-28T16:25:43.560Z,4.03
2023-03-28T16:28:20.106Z,1.02
2023-03-28T16:30:47.445Z,1.65
2023-03-28T16:33:15.006Z,0.90
2023-03-28T16:35:42.474Z,4.18
2023-03-28T16:38:11.844Z,1.08
2023-03-28T16:40:39.504Z,2.58
2023-03-28T16:43:07.959Z,1.10
2023-03-28T16:45:35.527Z,0.88
2023-03-28T16:48:02.461Z,2.15
2023-03-28T16:50:29.462Z,1.50
2023-03-28T16:52:56.380Z,1.90
2023-03-28T16:55:24.007Z,0.60
2023-03-28T16:57:51.293Z,0.30
2023-03-28T17:00:20.143Z,0.75
2023-03-28T17:02:48.192Z,1.23
2023-03-28T17:05:16.817Z,1.88
2023-03-28T17:07:44.455Z,1.30
2023-03-28T17:10:12.095Z,0.50
2023-03-28T17:12:39.156Z,0.93
2023-03-28T17:15:06.819Z,1.45
2023-03-28T17:17:34.127Z,0.73
2023-03-28T17:20:01.360Z,2.17
2023-03-28T17:22:28.377Z,1.70
2023-03-28T17:24:57.311Z,0.70
2023-03-28T17:27:24.369Z,1.90
2023-03-28T17:29:51.903Z,1.15
2023-03-28T17:32:19.372Z,0.88
2023-03-28T17:34:46.827Z,0.50
2023-03-28T17:37:13.898Z,2.70
2023-03-28T17:39:40.960Z,1.10
2023-03-28T17:42:09.161Z,0.52
2023-03-28T17:44:36.153Z,2.00
2023-03-28T17:47:03.713Z,0.55
2023-03-28T17:49:31.207Z,0.82
2023-03-28T17:51:58.368Z,0.88
2023-03-28T17:54:26.305Z,0.63
2023-03-28T17:56:54.120Z,0.63
2023-03-28T17:59:22.305Z,1.38
2023-03-28T18:01:49.818Z,0.77
2023-03-28T18:04:17.669Z,1.48
2023-03-28T18:06:44.738Z,0.98
2023-03-28T18:09:11.817Z,1.45
2023-03-28T18:11:39.538Z,1.13
2023-03-28T18:14:08.700Z,0.82
2023-03-28T18:16:36.163Z,0.93
2023-03-28T18:19:03.458Z,1.20
2023-03-28T18:21:30.598Z,0.52
2023-03-28T18:23:57.462Z,1.10
2023-03-28T18:26:24.887Z,1.25
2023-03-28T18:28:51.923Z,1.25
2023-03-28T18:31:20.248Z,0.80
2023-03-28T18:33:47.354Z,1.35
2023-03-28T18:36:14.570Z,0.38
2023-03-28T18:38:44.267Z,0.73
2023-03-28T18:41:12.715Z,0.43
2023-03-28T18:43:42.102Z,0.80
2023-03-28T18:46:11.004Z,0.55
2023-03-28T18:48:39.518Z,0.70
2023-03-28T18:51:06.655Z,0.30
2023-03-28T18:53:37.924Z,2.47
2023-03-28T18:56:09.859Z,0.70
2023-03-28T18:58:37.384Z,0.70
2023-03-28T19:01:04.998Z,0.85
2023-03-28T19:03:39.957Z,1.65
2023-03-28T19:06:08.238Z,0.50
2023-03-28T19:08:35.594Z,0.57
2023-03-28T19:11:08.111Z,0.95
2023-03-28T19:13:35.586Z,0.47
2023-03-28T19:16:05.733Z,0.30
2023-03-28T19:18:33.978Z,1.95
2023-03-28T19:21:01.157Z,0.70
2023-03-28T19:23:28.938Z,0.80
2023-03-28T19:25:56.622Z,0.70
2023-03-28T19:28:23.918Z,1.05
2023-03-28T19:31:05.208Z,1.00
2023-03-28T19:33:32.862Z,0.65
2023-03-28T19:36:00.754Z,0.80
2023-03-28T19:38:28.578Z,0.85
2023-03-28T19:40:59.934Z,0.77
2023-03-28T19:43:28.231Z,0.60
2023-03-28T19:46:04.960Z,0.50
2023-03-28T19:48:33.163Z,0.50
2023-03-28T19:51:00.549Z,0.73
2023-03-28T19:53:28.522Z,0.70
2023-03-28T19:55:56.563Z,0.70
2023-03-28T19:58:23.979Z,0.60
2023-03-28T20:00:51.219Z,0.77
2023-03-28T20:03:18.740Z,0.80
2023-03-28T20:05:47.617Z,0.47
2023-03-28T20:08:16.085Z,0.30
2023-03-28T20:10:45.017Z,0.60
2023-03-28T20:13:12.405Z,0.50
2023-03-28T20:15:43.882Z,0.28
2023-03-28T20:18:19.831Z,0.57
2023-03-28T20:20:56.073Z,0.43
2023-03-28T20:23:26.105Z,0.47
2023-03-28T20:25:54.182Z,0.70
2023-03-28T20:28:24.908Z,0.50
2023-03-28T20:30:53.453Z,1.05
2023-03-28T20:33:21.096Z,0.68
2023-03-28T20:35:56.008Z,0.63
2023-03-28T20:38:23.963Z,0.38
2023-03-28T20:40:51.415Z,0.68
2023-03-28T20:43:22.117Z,0.88
2023-03-28T20:45:53.690Z,0.52
2023-03-28T20:48:26.099Z,0.52
2023-03-28T20:50:54.047Z,0.55
2023-03-28T20:53:22.480Z,0.60
2023-03-28T20:55:50.529Z,0.93
2023-03-28T20:58:17.685Z,0.52
2023-03-28T21:00:47.417Z,0.73
2023-03-28T21:03:15.780Z,0.70
2023-03-28T21:05:44.726Z,0.70
2023-03-28T21:08:13.157Z,0.70
2023-03-28T21:10:41.568Z,1.05
2023-03-28T21:13:08.550Z,0.90
2023-03-28T21:15:35.437Z,0.60
2023-03-28T21:18:02.634Z,0.50
2023-03-28T21:20:29.619Z,0.47
2023-03-28T21:22:59.810Z,0.43
2023-03-28T21:25:27.638Z,0.57
2023-03-28T21:27:54.577Z,0.35
2023-03-28T21:30:21.906Z,0.40
2023-03-28T21:32:49.297Z,1.10
2023-03-28T21:35:16.332Z,0.57
2023-03-28T21:37:43.215Z,0.77
2023-03-28T21:40:10.504Z,0.70
2023-03-28T21:42:37.941Z,1.10
2023-03-28T21:45:06.001Z,0.50
2023-03-28T21:47:32.951Z,0.68
2023-03-28T21:50:00.295Z,0.57
2023-03-28T21:52:28.396Z,0.90
2023-03-28T21:54:56.062Z,0.43
2023-03-28T21:57:23.115Z,1.00
2023-03-28T21:59:50.314Z,0.30
2023-03-28T22:02:17.715Z,1.00
2023-03-28T22:04:47.127Z,0.50
2023-03-28T22:07:14.509Z,0.47
2023-03-28T22:09:42.136Z,0.43
2023-03-28T22:12:09.049Z,0.80
2023-03-28T22:14:36.001Z,0.75
2023-03-28T22:17:03.654Z,0.95
2023-03-28T22:19:30.894Z,1.52
2023-03-28T22:22:00.879Z,0.73
2023-03-28T22:24:28.198Z,0.75
2023-03-28T22:26:57.351Z,0.85
2023-03-28T22:29:24.713Z,1.00
2023-03-28T22:31:51.827Z,0.55
2023-03-28T22:34:20.987Z,0.52
2023-03-28T22:36:49.525Z,0.28
2023-03-28T22:39:20.039Z,0.60
2023-03-28T22:41:47.282Z,0.40
2023-03-28T22:44:15.694Z,1.02
2023-03-28T22:46:44.458Z,0.52
2023-03-28T22:49:13.057Z,0.45
2023-03-28T22:51:46.645Z,0.88
2023-03-28T22:54:22.840Z,0.70
2023-03-28T22:56:49.989Z,0.50
2023-03-28T22:59:16.993Z,0.20
2023-03-28T23:01:45.482Z,0.95
2023-03-28T23:04:13.313Z,0.47
2023-03-28T23:06:41.512Z,0.85
2023-03-28T23:09:08.846Z,0.80
2023-03-28T23:11:36.398Z,0.52
2023-03-28T23:14:03.748Z,0.77
2023-03-28T23:16:30.748Z,0.52
2023-03-28T23:18:59.328Z,1.45
2023-03-28T23:21:27.374Z,0.95
2023-03-28T23:23:54.750Z,1.10
2023-03-28T23:26:22.350Z,0.50
2023-03-28T23:28:49.297Z,1.38
2023-03-28T23:31:16.654Z,0.75
2023-03-28T23:33:46.630Z,0.80
2023-03-28T23:36:14.559Z,0.40
2023-03-28T23:38:41.742Z,2.15
2023-03-28T23:41:09.060Z,0.77
2023-03-28T23:43:36.132Z,0.50
2023-03-28T23:46:04.364Z,0.70
2023-03-28T23:48:32.114Z,0.25
2023-03-28T23:51:01.948Z,0.90
2023-03-28T23:53:29.824Z,0.35
2023-03-28T23:55:56.865Z,0.65
2023-03-28T23:58:24.165Z,0.60
